Time;durP1;ratioP1;P1;durP2;ratioP2;P2;SDS_P1;SDS_P2;PMS_P1;PMS_P2;Temp;Humidity;BMP_temperature;BMP_pressure;BME280_temperature;BME280_humidity;BME280_pressure;Samples;Min_cycle;Max_cycle;Signal;HPM_P1;HPM_P2
2024/02/27 00:01:46;;;;;;;;;;;308.00;2304.00;;;;;;4906343;29;20010;-76
2024/02/27 00:04:12;;;;;;;;;;;308.00;2304.00;;;;;;4928398;29;19911;-76
2024/02/27 00:06:37;;;;;;;;;;;308.00;2304.00;;;;;;4924546;29;19911;-76
2024/02/27 00:09:03;;;;;;;;;;;308.00;2304.00;;;;;;4918591;29;19918;-77
2024/02/27 00:11:30;;;;;;;;;;;307.90;2304.00;;;;;;4916486;29;19911;-81
2024/02/27 00:13:55;;;;;;;;;;;307.90;2304.00;;;;;;4907348;29;19911;-77
2024/02/27 00:16:21;;;;;;;;;;;307.90;2304.00;;;;;;4913867;29;19911;-78
2024/02/27 00:18:47;;;;;;;;;;;307.90;2304.00;;;;;;4922455;29;19911;-77
2024/02/27 00:21:13;;;;;;;;;;;307.90;2304.00;;;;;;4920358;29;19970;-77
2024/02/27 00:23:39;;;;;;;;;;;307.90;2304.00;;;;;;4919676;29;19958;-78
2024/02/27 00:26:05;;;;;;;;;;;307.90;2304.00;;;;;;4909919;29;19911;-78
2024/02/27 00:28:30;;;;;;;;;;;307.90;2304.00;;;;;;4909864;29;20001;-76
2024/02/27 00:30:56;;;;;;;;;;;307.90;2304.00;;;;;;4912178;29;19911;-76
2024/02/27 00:33:21;;;;;;;;;;;307.80;2304.00;;;;;;4908722;29;19911;-78
2024/02/27 00:35:47;;;;;;;;;;;307.80;2304.00;;;;;;4940132;29;19949;-77
2024/02/27 00:38:13;;;;;;;;;;;307.80;2304.00;;;;;;4939654;29;19915;-76
2024/02/27 00:40:39;;;;;;;;;;;307.80;2304.00;;;;;;4936131;29;19919;-78
2024/02/27 00:43:04;;;;;;;;;;;307.80;2304.00;;;;;;4920590;29;19910;-76
2024/02/27 00:45:30;;;;;;;;;;;307.80;2304.00;;;;;;4939689;29;20371;-81
2024/02/27 00:47:58;;;;;;;;;;;307.80;2304.00;;;;;;4939582;29;19911;-77
2024/02/27 00:50:24;;;;;;;;;;;307.80;2304.00;;;;;;4922265;29;20369;-76
2024/02/27 00:52:50;;;;;;;;;;;307.80;2304.00;;;;;;4922413;29;19915;-76
2024/02/27 00:55:16;;;;;;;;;;;307.80;2304.00;;;;;;4939468;29;19918;-77
2024/02/27 00:57:42;;;;;;;;;;;307.80;2304.00;;;;;;4939381;29;19974;-76
2024/02/27 01:00:08;;;;;;;;;;;307.80;2304.00;;;;;;4939411;29;20311;-77
2024/02/27 01:02:37;;;;;;;;;;;307.80;2304.00;;;;;;4922031;29;20005;-76
2024/02/27 01:05:03;;;;;;;;;;;307.80;2304.00;;;;;;4939208;29;19919;-78
2024/02/27 01:07:29;;;;;;;;;;;307.80;2304.00;;;;;;4939436;29;19911;-77
2024/02/27 01:09:56;;;;;;;;;;;307.70;2304.00;;;;;;4939246;29;19966;-76
2024/02/27 01:12:21;;;;;;;;;;;332.80;2329.60;;;;;;4922244;29;19911;-79
2024/02/27 01:14:47;;;;;;;;;;;307.70;2304.00;;;;;;4939106;29;19911;-81
2024/02/27 01:17:13;;;;;;;;;;;307.70;2304.00;;;;;;4939113;29;19918;-75
2024/02/27 01:19:38;;;;;;;;;;;307.70;2304.00;;;;;;4921887;29;20002;-76
2024/02/27 01:22:04;;;;;;;;;;;307.70;2304.00;;;;;;4938446;29;19922;-76
2024/02/27 01:24:30;;;;;;;;;;;307.70;2304.00;;;;;;4941608;29;20402;-75
2024/02/27 01:26:55;;;;;;;;;;;307.70;2304.00;;;;;;4921020;29;19916;-81
2024/02/27 01:29:22;;;;;;;;;;;307.70;2304.00;;;;;;4938060;29;19910;-75
2024/02/27 01:31:47;;;;;;;;;;;307.70;2304.00;;;;;;4938246;29;19970;-76
2024/02/27 01:34:13;;;;;;;;;;;307.70;2304.00;;;;;;4937708;29;19927;-76
2024/02/27 01:36:38;;;;;;;;;;;307.70;2304.00;;;;;;4937792;29;20423;-76
2024/02/27 01:39:08;;;;;;;;;;;307.70;2304.00;;;;;;4921075;29;19923;-77
2024/02/27 01:41:34;;;;;;;;;;;307.70;2304.00;;;;;;4938007;29;20391;-76
2024/02/27 01:44:00;;;;;;;;;;;307.70;2304.00;;;;;;4927312;28;20322;-78
2024/02/27 01:46:25;;;;;;;;;;;307.80;2304.00;;;;;;4941181;29;19915;-76
2024/02/27 01:48:53;;;;;;;;;;;307.70;2304.00;;;;;;4935740;29;20270;-76
2024/02/27 01:51:19;;;;;;;;;;;307.80;2304.00;;;;;;4936751;29;19915;-75
2024/02/27 01:53:46;;;;;;;;;;;307.40;2304.00;;;;;;4935978;29;20018;-75
2024/02/27 01:56:12;;;;;;;;;;;307.80;2304.00;;;;;;4937843;29;19921;-73
2024/02/27 01:58:38;;;;;;;;;;;307.80;2304.00;;;;;;4942166;29;20001;-74
2024/02/27 02:01:03;;;;;;;;;;;307.80;2304.00;;;;;;4926898;29;19985;-73
2024/02/27 02:03:31;;;;;;;;;;;307.80;2304.00;;;;;;4938934;29;19922;-74
2024/02/27 02:05:58;;;;;;;;;;;307.80;2304.00;;;;;;4933181;29;19915;-73
2024/02/27 02:08:24;;;;;;;;;;;307.80;2304.00;;;;;;4943771;29;19954;-74
2024/02/27 02:10:51;;;;;;;;;;;307.80;2304.00;;;;;;4934797;29;19918;-73
2024/02/27 02:13:17;;;;;;;;;;;307.80;2304.00;;;;;;4938260;29;20013;-73
2024/02/27 02:15:43;;;;;;;;;;;307.80;2304.00;;;;;;4945158;29;20418;-73
2024/02/27 02:18:09;;;;;;;;;;;307.80;2304.00;;;;;;4937634;29;19922;-75
2024/02/27 02:20:34;;;;;;;;;;;307.90;2304.00;;;;;;4932630;29;20375;-74
2024/02/27 02:23:00;;;;;;;;;;;307.90;2304.00;;;;;;4938554;29;20016;-75
2024/02/27 02:25:27;;;;;;;;;;;307.80;2304.00;;;;;;4941446;29;20005;-78
2024/02/27 02:27:52;;;;;;;;;;;307.80;2304.00;;;;;;4940993;29;19926;-74
2024/02/27 02:30:18;;;;;;;;;;;307.80;2304.00;;;;;;4940062;29;19914;-74
2024/02/27 02:32:47;;;;;;;;;;;307.80;2304.00;;;;;;4937535;29;19911;-74
2024/02/27 02:35:13;;;;;;;;;;;307.80;2304.00;;;;;;4914846;29;19919;-74
2024/02/27 02:37:39;;;;;;;;;;;307.80;2304.00;;;;;;4936504;29;20298;-74
2024/02/27 02:40:06;;;;;;;;;;;307.80;2304.00;;;;;;4937077;29;19958;-74
2024/02/27 02:42:32;;;;;;;;;;;307.80;2304.00;;;;;;4926867;29;20014;-74
2024/02/27 02:44:58;;;;;;;;;;;307.70;2304.00;;;;;;4943451;29;20119;-74
2024/02/27 02:47:23;;;;;;;;;;;307.70;2304.00;;;;;;4944208;29;19983;-74
2024/02/27 02:49:49;;;;;;;;;;;307.70;2304.00;;;;;;4939496;29;19914;-75
2024/02/27 02:52:15;;;;;;;;;;;307.70;2304.00;;;;;;4936819;29;19918;-74
2024/02/27 02:54:40;;;;;;;;;;;307.70;2304.00;;;;;;4938647;29;19926;-74
2024/02/27 02:57:06;;;;;;;;;;;307.70;2304.00;;;;;;4942105;28;19915;-72
2024/02/27 02:59:32;;;;;;;;;;;307.70;2304.00;;;;;;4934173;29;19922;-73
2024/02/27 03:01:57;;;;;;;;;;;307.70;2304.00;;;;;;4941556;29;19918;-76
2024/02/27 03:04:23;;;;;;;;;;;307.70;2304.00;;;;;;4941258;29;20006;-74
2024/02/27 03:06:48;;;;;;;;;;;307.70;2304.00;;;;;;4936025;29;20298;-74
2024/02/27 03:09:14;;;;;;;;;;;307.70;2304.00;;;;;;4938615;29;19910;-74
2024/02/27 03:11:39;;;;;;;;;;;307.70;2304.00;;;;;;4936860;29;19917;-74
2024/02/27 03:14:06;;;;;;;;;;;307.60;2304.00;;;;;;4937300;29;19965;-75
2024/02/27 03:16:31;;;;;;;;;;;307.60;2304.00;;;;;;4943950;29;19914;-78
2024/02/27 03:18:57;;;;;;;;;;;307.60;2304.00;;;;;;4933880;29;19910;-73
2024/02/27 03:21:23;;;;;;;;;;;307.60;2304.00;;;;;;4935876;29;19934;-74
2024/02/27 03:23:48;;;;;;;;;;;307.60;2304.00;;;;;;4939850;29;19919;-74
2024/02/27 03:26:16;;;;;;;;;;;307.50;2304.00;;;;;;4938115;29;19970;-74
2024/02/27 03:28:41;;;;;;;;;;;307.50;2304.00;;;;;;4938684;29;19915;-74
2024/02/27 03:31:08;;;;;;;;;;;307.50;2304.00;;;;;;4918765;29;19962;-74
2024/02/27 03:33:34;;;;;;;;;;;307.40;2304.00;;;;;;4936136;29;19934;-74
2024/02/27 03:36:02;;;;;;;;;;;307.40;2304.00;;;;;;4933051;29;20357;-74
2024/02/27 03:38:27;;;;;;;;;;;307.40;2304.00;;;;;;4918650;29;20356;-74
2024/02/27 03:40:53;;;;;;;;;;;307.40;2304.00;;;;;;4919045;29;19969;-74
2024/02/27 03:43:18;;;;;;;;;;;307.40;2304.00;;;;;;4936034;29;19915;-78
2024/02/27 03:45:44;;;;;;;;;;;307.30;2304.00;;;;;;4935712;29;19962;-78
2024/02/27 03:48:09;;;;;;;;;;;307.30;2304.00;;;;;;4936391;29;19915;-73
2024/02/27 03:50:35;;;;;;;;;;;307.30;2304.00;;;;;;4933432;29;19922;-74
2024/02/27 03:53:01;;;;;;;;;;;307.30;2304.00;;;;;;4937150;29;19926;-75
2024/02/27 03:55:26;;;;;;;;;;;307.30;2304.00;;;;;;4930412;29;20407;-74
2024/02/27 03:57:52;;;;;;;;;;;307.30;2304.00;;;;;;4932143;29;19922;-73
2024/02/27 04:00:17;;;;;;;;;;;307.30;2304.00;;;;;;4929518;29;20018;-74
2024/02/27 04:02:43;;;;;;;;;;;307.20;2304.00;;;;;;4917344;29;20309;-74
2024/02/27 04:05:09;;;;;;;;;;;307.20;2304.00;;;;;;4935795;29;19915;-74
2024/02/27 04:07:35;;;;;;;;;;;307.20;2304.00;;;;;;4927899;29;20975;-74
2024/02/27 04:10:00;;;;;;;;;;;307.20;2304.00;;;;;;4938812;29;20360;-74
2024/02/27 04:12:26;;;;;;;;;;;307.20;2304.00;;;;;;4939448;29;19922;-74
2024/02/27 04:14:52;;;;;;;;;;;307.20;2304.00;;;;;;4922511;29;20389;-76
2024/02/27 04:17:19;;;;;;;;;;;307.20;2304.00;;;;;;4939619;29;20001;-74
2024/02/27 04:19:44;;;;;;;;;;;307.20;2304.00;;;;;;4936889;29;19918;-73
2024/02/27 04:22:10;;;;;;;;;;;307.20;2304.00;;;;;;4940035;29;20438;-73
2024/02/27 04:24:35;;;;;;;;;;;307.20;2304.00;;;;;;4937568;29;19918;-74
2024/02/27 04:27:02;;;;;;;;;;;282.50;2278.40;;;;;;4939392;29;19914;-75
2024/02/27 04:29:28;;;;;;;;;;;282.50;2278.40;;;;;;4939029;29;20426;-79
2024/02/27 04:31:53;;;;;;;;;;;307.20;2304.00;;;;;;4939357;29;20001;-73
2024/02/27 04:34:19;;;;;;;;;;;307.20;2304.00;;;;;;4939406;29;20009;-74
2024/02/27 04:36:46;;;;;;;;;;;307.20;2304.00;;;;;;4939244;29;19921;-74
2024/02/27 04:39:13;;;;;;;;;;;307.20;2304.00;;;;;;4920631;29;19930;-75
2024/02/27 04:41:39;;;;;;;;;;;307.20;2304.00;;;;;;4943089;29;19922;-73
2024/02/27 04:44:04;;;;;;;;;;;307.20;2304.00;;;;;;4948850;29;20010;-74
2024/02/27 04:46:30;;;;;;;;;;;307.20;2304.00;;;;;;4937235;29;19915;-74
2024/02/27 04:48:55;;;;;;;;;;;282.50;2278.40;;;;;;4938722;29;19958;-78
2024/02/27 04:51:21;;;;;;;;;;;282.50;2278.40;;;;;;4939123;29;19997;-76
2024/02/27 04:53:47;;;;;;;;;;;282.50;2278.40;;;;;;4935963;29;19922;-73
2024/02/27 04:56:12;;;;;;;;;;;282.50;2278.40;;;;;;4939331;29;19915;-77
2024/02/27 04:58:38;;;;;;;;;;;282.50;2278.40;;;;;;4938649;29;19919;-73
2024/02/27 05:01:03;;;;;;;;;;;282.50;2278.40;;;;;;4938859;29;20375;-74
2024/02/27 05:03:29;;;;;;;;;;;282.40;2278.40;;;;;;4920565;29;19915;-73
2024/02/27 05:05:55;;;;;;;;;;;282.40;2278.40;;;;;;4934708;29;19922;-74
2024/02/27 05:08:20;;;;;;;;;;;282.40;2278.40;;;;;;4944427;29;20382;-74
2024/02/27 05:10:46;;;;;;;;;;;282.40;2278.40;;;;;;4935255;29;19919;-74
2024/02/27 05:13:11;;;;;;;;;;;282.30;2278.40;;;;;;4927901;29;20006;-73
2024/02/27 05:15:37;;;;;;;;;;;282.30;2278.40;;;;;;4930104;29;19916;-74
2024/02/27 05:18:03;;;;;;;;;;;282.20;2278.40;;;;;;4924382;29;20007;-75
2024/02/27 05:20:28;;;;;;;;;;;282.20;2278.40;;;;;;4924970;29;19915;-73
2024/02/27 05:22:54;;;;;;;;;;;282.20;2278.40;;;;;;4932760;29;19974;-73
2024/02/27 05:25:20;;;;;;;;;;;282.20;2278.40;;;;;;4932676;29;20260;-74
2024/02/27 05:27:45;;;;;;;;;;;282.20;2278.40;;;;;;4930007;29;20001;-74
2024/02/27 05:30:11;;;;;;;;;;;282.10;2278.40;;;;;;4927216;29;19911;-74
2024/02/27 05:32:37;;;;;;;;;;;282.10;2278.40;;;;;;4930832;29;20817;-74
2024/02/27 05:35:04;;;;;;;;;;;282.10;2278.40;;;;;;4939916;29;20145;-74
2024/02/27 05:37:29;;;;;;;;;;;282.10;2278.40;;;;;;4935709;29;19911;-74
2024/02/27 05:39:55;;;;;;;;;;;282.00;2278.40;;;;;;4947643;29;19918;-76
2024/02/27 05:42:22;;;;;;;;;;;282.10;2278.40;;;;;;4935557;29;20295;-75
2024/02/27 05:44:48;;;;;;;;;;;282.10;2278.40;;;;;;4918495;29;19918;-75
2024/02/27 05:47:13;;;;;;;;;;;282.00;2278.40;;;;;;4911247;29;19911;-78
2024/02/27 05:49:39;;;;;;;;;;;282.00;2278.40;;;;;;4931407;29;20046;-77
2024/02/27 05:52:05;;;;;;;;;;;282.00;2278.40;;;;;;4929672;29;19915;-74
2024/02/27 05:54:30;;;;;;;;;;;282.00;2278.40;;;;;;4932780;29;19997;-79
2024/02/27 05:56:56;;;;;;;;;;;282.00;2278.40;;;;;;4918308;29;19911;-78
2024/02/27 05:59:21;;;;;;;;;;;282.00;2278.40;;;;;;4944583;29;20323;-80
2024/02/27 06:01:47;;;;;;;;;;;282.00;2278.40;;;;;;4909717;29;19926;-75
2024/02/27 06:04:13;;;;;;;;;;;282.00;2278.40;;;;;;4930901;29;19938;-75
2024/02/27 06:06:38;;;;;;;;;;;282.00;2278.40;;;;;;4907405;29;19912;-74
2024/02/27 06:09:07;;;;;;;;;;;282.10;2278.40;;;;;;4920797;29;19918;-76
2024/02/27 06:11:32;;;;;;;;;;;282.20;2278.40;;;;;;4915841;29;19912;-74
2024/02/27 06:13:59;;;;;;;;;;;282.20;2278.40;;;;;;4926465;29;19917;-75
2024/02/27 06:16:25;;;;;;;;;;;282.20;2278.40;;;;;;4934359;29;19922;-78
2024/02/27 06:18:50;;;;;;;;;;;282.30;2278.40;;;;;;4923918;29;19915;-76
2024/02/27 06:24:00;;;;;;;;;;;282.40;2278.40;;;;;;4942146;29;20378;-77
2024/02/27 06:26:27;;;;;;;;;;;282.50;2278.40;;;;;;4913577;29;19916;-75
2024/02/27 06:28:53;;;;;;;;;;;307.20;2304.00;;;;;;4930643;29;20375;-77
2024/02/27 06:31:18;;;;;;;;;;;307.20;2304.00;;;;;;4924450;29;19911;-73
2024/02/27 06:33:44;;;;;;;;;;;307.30;2304.00;;;;;;4922256;29;19918;-75
2024/02/27 06:36:11;;;;;;;;;;;307.30;2304.00;;;;;;4907872;29;19919;-75
2024/02/27 06:38:36;;;;;;;;;;;307.40;2304.00;;;;;;4929709;29;19923;-74
2024/02/27 06:41:02;;;;;;;;;;;307.50;2304.00;;;;;;4925551;29;19989;-76
2024/02/27 06:43:27;;;;;;;;;;;307.70;2304.00;;;;;;4927628;29;19922;-73
2024/02/27 06:45:54;;;;;;;;;;;307.70;2304.00;;;;;;4935759;29;19915;-74
2024/02/27 06:48:20;;;;;;;;;;;307.80;2304.00;;;;;;4914888;29;19911;-74
2024/02/27 06:50:46;;;;;;;;;;;307.90;2304.00;;;;;;4929238;29;19922;-74
2024/02/27 06:53:12;;;;;;;;;;;308.00;2304.00;;;;;;4925647;29;19959;-75
2024/02/27 06:55:37;;;;;;;;;;;308.10;2304.00;;;;;;4929001;29;20372;-75
2024/02/27 06:58:03;;;;;;;;;;;332.90;2329.60;;;;;;4930558;29;19915;-76
2024/02/27 07:00:29;;;;;;;;;;;332.90;2329.60;;;;;;4910027;29;19915;-74
2024/02/27 07:02:54;;;;;;;;;;;333.00;2329.60;;;;;;4928473;29;19914;-74
2024/02/27 07:05:20;;;;;;;;;;;333.10;2329.60;;;;;;4934683;29;19974;-77
2024/02/27 07:07:46;;;;;;;;;;;333.20;2329.60;;;;;;4907847;29;19915;-75
2024/02/27 07:10:15;;;;;;;;;;;333.20;2329.60;;;;;;4930059;29;19947;-78
2024/02/27 07:12:43;;;;;;;;;;;333.30;2329.60;;;;;;4912337;29;20357;-77
2024/02/27 07:15:09;;;;;;;;;;;333.50;2329.60;;;;;;4916182;29;20288;-73
2024/02/27 07:17:35;;;;;;;;;;;333.60;2329.60;;;;;;4929483;29;19911;-75
2024/02/27 07:20:03;;;;;;;;;;;333.60;2329.60;;;;;;4909994;29;19926;-78
2024/02/27 07:22:29;;;;;;;;;;;333.60;2329.60;;;;;;4927164;29;19930;-78
2024/02/27 07:24:55;;;;;;;;;;;333.50;2329.60;;;;;;4921279;29;19919;-77
2024/02/27 07:27:21;;;;;;;;;;;333.70;2329.60;;;;;;4911171;29;19911;-79
2024/02/27 07:29:46;;;;;;;;;;;358.40;2329.60;;;;;;4915981;29;19962;-75
2024/02/27 07:32:14;;;;;;;;;;;358.40;2329.60;;;;;;4913636;29;19917;-76
2024/02/27 07:34:42;;;;;;;;;;;333.50;2329.60;;;;;;4911706;29;19915;-75
2024/02/27 07:37:09;;;;;;;;;;;358.50;2329.60;;;;;;4907152;29;20253;-76
2024/02/27 07:39:36;;;;;;;;;;;358.60;2329.60;;;;;;4929946;29;20317;-78
2024/02/27 07:42:02;;;;;;;;;;;358.70;2329.60;;;;;;4909322;29;19930;-76
2024/02/27 07:44:28;;;;;;;;;;;358.80;2329.60;;;;;;4916215;29;19911;-79
2024/02/27 07:46:54;;;;;;;;;;;359.00;2329.60;;;;;;4907142;29;19915;-76
2024/02/27 07:49:19;;;;;;;;;;;359.00;2329.60;;;;;;4918364;29;19917;-76
2024/02/27 07:51:45;;;;;;;;;;;359.20;2329.60;;;;;;4934688;29;20001;-78
2024/02/27 07:54:11;;;;;;;;;;;384.00;2329.60;;;;;;4915148;29;20283;-76
2024/02/27 07:56:36;;;;;;;;;;;384.00;2329.60;;;;;;4935205;29;19939;-77
2024/02/27 07:59:02;;;;;;;;;;;384.00;2329.60;;;;;;4917405;29;20375;-79
2024/02/27 08:01:29;;;;;;;;;;;384.00;2304.00;;;;;;4910308;29;19919;-76
2024/02/27 08:03:55;;;;;;;;;;;384.00;2304.00;;;;;;4931624;29;20375;-76
2024/02/27 08:06:22;;;;;;;;;;;384.00;2329.60;;;;;;4913317;29;19997;-76
2024/02/27 08:08:48;;;;;;;;;;;384.10;2304.00;;;;;;4924967;29;19918;-76
2024/02/27 08:11:13;;;;;;;;;;;410.20;2355.20;;;;;;4908849;29;20386;-76
2024/02/27 08:13:39;;;;;;;;;;;384.50;2278.40;;;;;;4935235;29;20291;-75
2024/02/27 08:16:05;;;;;;;;;;;384.50;2252.80;;;;;;4921695;29;19954;-76
2024/02/27 08:18:30;;;;;;;;;;;384.50;2227.20;;;;;;4928106;29;19911;-75
2024/02/27 08:20:56;;;;;;;;;;;384.50;2252.80;;;;;;4929643;29;19926;-76
2024/02/27 08:23:21;;;;;;;;;;;384.40;2176.00;;;;;;4932778;29;19915;-76
2024/02/27 08:25:47;;;;;;;;;;;384.60;2252.80;;;;;;4936511;29;19974;-76
2024/02/27 08:28:12;;;;;;;;;;;384.60;2150.40;;;;;;4936941;29;20010;-76
2024/02/27 08:30:38;;;;;;;;;;;384.70;2201.60;;;;;;4912531;29;19919;-76
2024/02/27 08:33:04;;;;;;;;;;;384.80;2176.00;;;;;;4929899;29;20010;-76
2024/02/27 08:35:30;;;;;;;;;;;384.70;2176.00;;;;;;4909786;29;19954;-76
2024/02/27 08:37:56;;;;;;;;;;;384.90;2176.00;;;;;;4913738;29;20021;-78
2024/02/27 08:40:21;;;;;;;;;;;409.80;2201.60;;;;;;4932234;29;19911;-77
2024/02/27 08:42:47;;;;;;;;;;;409.80;2124.80;;;;;;4917339;29;20005;-77
2024/02/27 08:45:13;;;;;;;;;;;409.90;2176.00;;;;;;4921813;29;19915;-76
2024/02/27 08:47:39;;;;;;;;;;;409.90;2099.20;;;;;;4929510;29;19907;-79
2024/02/27 08:50:06;;;;;;;;;;;410.00;2124.80;;;;;;4925433;29;19911;-79
2024/02/27 08:52:31;;;;;;;;;;;410.10;2048.00;;;;;;4927306;29;20275;-78
2024/02/27 08:54:57;;;;;;;;;;;410.20;2022.40;;;;;;4895625;29;19940;-79
2024/02/27 08:57:23;;;;;;;;;;;410.30;2073.60;;;;;;4936475;29;19910;-78
2024/02/27 08:59:49;;;;;;;;;;;410.30;2022.40;;;;;;4934078;29;20386;-78
2024/02/27 09:02:15;;;;;;;;;;;410.30;2022.40;;;;;;4918680;29;19974;-80
2024/02/27 09:04:40;;;;;;;;;;;410.50;2073.60;;;;;;4913509;29;19934;-78
2024/02/27 09:07:06;;;;;;;;;;;435.20;2022.40;;;;;;4931495;29;20375;-79
2024/02/27 09:09:32;;;;;;;;;;;435.20;2022.40;;;;;;4915042;29;19962;-78
2024/02/27 09:11:57;;;;;;;;;;;435.30;2048.00;;;;;;4926430;29;19953;-78
2024/02/27 09:14:24;;;;;;;;;;;435.30;1996.80;;;;;;4927063;29;19914;-79
2024/02/27 09:16:49;;;;;;;;;;;435.40;2022.40;;;;;;4906026;29;19915;-78
2024/02/27 09:19:17;;;;;;;;;;;435.30;1996.80;;;;;;4930150;29;19910;-78
2024/02/27 09:21:43;;;;;;;;;;;435.20;1996.80;;;;;;4917635;29;19927;-78
2024/02/27 09:24:08;;;;;;;;;;;435.40;1996.80;;;;;;4939798;29;19915;-78
2024/02/27 09:26:34;;;;;;;;;;;435.40;1996.80;;;;;;4912758;29;19919;-78
2024/02/27 09:29:00;;;;;;;;;;;435.40;1971.20;;;;;;4906291;29;19911;-79
2024/02/27 09:31:26;;;;;;;;;;;435.50;1971.20;;;;;;4931915;29;19911;-79
2024/02/27 09:33:52;;;;;;;;;;;435.60;1945.60;;;;;;4908026;29;20359;-76
2024/02/27 09:36:17;;;;;;;;;;;435.60;1920.00;;;;;;4913167;29;19910;-76
2024/02/27 09:38:43;;;;;;;;;;;435.60;1920.00;;;;;;4913944;29;20303;-76
2024/02/27 09:41:12;;;;;;;;;;;435.70;1920.00;;;;;;4936172;29;19919;-77
2024/02/27 09:43:40;;;;;;;;;;;436.10;1920.00;;;;;;4912832;29;19919;-77
2024/02/27 09:46:06;;;;;;;;;;;436.10;1868.80;;;;;;4932367;29;19947;-76
2024/02/27 09:48:34;;;;;;;;;;;436.10;1868.80;;;;;;4932273;29;20003;-78
2024/02/27 09:51:01;;;;;;;;;;;460.80;1894.40;;;;;;4931425;29;19919;-77
2024/02/27 09:53:27;;;;;;;;;;;461.10;1894.40;;;;;;4912313;29;20363;-76
2024/02/27 09:55:53;;;;;;;;;;;461.20;1868.80;;;;;;4931929;29;19918;-76
2024/02/27 09:58:22;;;;;;;;;;;461.30;1843.20;;;;;;4929315;29;19918;-77
2024/02/27 10:00:48;;;;;;;;;;;461.40;1868.80;;;;;;4929589;29;19911;-76
2024/02/27 10:03:14;;;;;;;;;;;461.40;1843.20;;;;;;4924438;29;19917;-78
2024/02/27 10:05:42;;;;;;;;;;;461.70;1817.60;;;;;;4930865;29;20241;-80
2024/02/27 10:08:11;;;;;;;;;;;461.60;1792.00;;;;;;4926277;29;19958;-76
2024/02/27 10:10:38;;;;;;;;;;;461.50;1792.00;;;;;;4917166;29;19958;-78
2024/02/27 10:13:04;;;;;;;;;;;461.60;1792.00;;;;;;4914407;29;20287;-80
2024/02/27 10:15:30;;;;;;;;;;;461.70;1792.00;;;;;;4915110;29;19910;-78
2024/02/27 10:17:56;;;;;;;;;;;486.40;1792.00;;;;;;4931988;29;19914;-80
2024/02/27 10:20:26;;;;;;;;;;;486.80;1792.00;;;;;;4911538;29;19921;-77
2024/02/27 10:22:52;;;;;;;;;;;486.70;1792.00;;;;;;4930110;29;19977;-80
2024/02/27 10:25:18;;;;;;;;;;;486.80;1740.80;;;;;;4909882;29;19942;-77
2024/02/27 10:27:44;;;;;;;;;;;486.60;1766.40;;;;;;4916556;29;19919;-78
2024/02/27 10:30:14;;;;;;;;;;;486.60;1766.40;;;;;;4927032;29;19998;-80
2024/02/27 10:32:41;;;;;;;;;;;486.60;1766.40;;;;;;4931303;29;19919;-80
2024/02/27 10:35:08;;;;;;;;;;;486.80;1792.00;;;;;;4927081;29;19911;-79
2024/02/27 10:37:35;;;;;;;;;;;486.70;1740.80;;;;;;4929102;29;19915;-78
2024/02/27 10:40:02;;;;;;;;;;;486.40;1766.40;;;;;;4907436;29;19916;-77
2024/02/27 10:42:28;;;;;;;;;;;486.60;1766.40;;;;;;4921931;29;19958;-78
2024/02/27 10:44:54;;;;;;;;;;;486.70;1740.80;;;;;;4931036;29;19963;-77
2024/02/27 10:47:22;;;;;;;;;;;486.70;1792.00;;;;;;4930414;29;19950;-78
2024/02/27 10:49:48;;;;;;;;;;;486.90;1766.40;;;;;;4915749;29;19998;-77
2024/02/27 10:52:15;;;;;;;;;;;486.80;1766.40;;;;;;4920859;29;19966;-76
2024/02/27 10:54:41;;;;;;;;;;;486.40;1817.60;;;;;;4925856;29;20002;-77
2024/02/27 10:57:08;;;;;;;;;;;486.40;1817.60;;;;;;4916009;29;19910;-77
2024/02/27 10:59:35;;;;;;;;;;;486.40;1817.60;;;;;;4918948;29;19914;-78
2024/02/27 11:02:02;;;;;;;;;;;461.60;1817.60;;;;;;4930785;29;20021;-76
2024/02/27 11:04:32;;;;;;;;;;;461.40;1843.20;;;;;;4915441;29;21359;-77
2024/02/27 11:06:59;;;;;;;;;;;461.40;1843.20;;;;;;4924291;29;19911;-77
2024/02/27 11:09:26;;;;;;;;;;;461.20;1894.40;;;;;;4935016;29;20434;-77
2024/02/27 11:11:55;;;;;;;;;;;461.10;1920.00;;;;;;4908503;29;20359;-78
2024/02/27 11:14:25;;;;;;;;;;;461.20;1920.00;;;;;;4921240;29;19911;-77
2024/02/27 11:16:54;;;;;;;;;;;461.00;1920.00;;;;;;4914207;29;19911;-78
2024/02/27 11:19:21;;;;;;;;;;;461.00;1945.60;;;;;;4928815;29;20013;-79
2024/02/27 11:21:47;;;;;;;;;;;461.00;1971.20;;;;;;4927364;29;19930;-77
2024/02/27 11:24:13;;;;;;;;;;;461.10;1971.20;;;;;;4938466;29;19933;-78
2024/02/27 11:26:39;;;;;;;;;;;461.10;1971.20;;;;;;4927112;29;19911;-78
2024/02/27 11:29:05;;;;;;;;;;;461.20;1945.60;;;;;;4903147;29;19966;-77
2024/02/27 11:31:32;;;;;;;;;;;461.20;1945.60;;;;;;4929430;29;19918;-79
2024/02/27 11:33:59;;;;;;;;;;;461.20;1945.60;;;;;;4915665;29;19911;-77
2024/02/27 11:36:25;;;;;;;;;;;461.10;1945.60;;;;;;4918337;29;19911;-77
2024/02/27 11:38:51;;;;;;;;;;;461.20;1945.60;;;;;;4932555;29;19911;-78
2024/02/27 11:41:18;;;;;;;;;;;461.40;1920.00;;;;;;4933324;29;19926;-79
2024/02/27 11:43:46;;;;;;;;;;;461.50;1920.00;;;;;;4913383;29;20398;-77
2024/02/27 11:46:26;;;;;;;;;;;461.70;1894.40;;;;;;4928722;29;20033;-78
2024/02/27 11:48:52;;;;;;;;;;;486.40;1868.80;;;;;;4930232;29;20291;-76
2024/02/27 11:51:31;;;;;;;;;;;486.40;1868.80;;;;;;4910536;29;19917;-77
2024/02/27 11:53:57;;;;;;;;;;;486.40;1868.80;;;;;;4912715;29;19919;-77
2024/02/27 11:56:23;;;;;;;;;;;486.40;1868.80;;;;;;4932186;29;20264;-78
2024/02/27 11:58:49;;;;;;;;;;;486.40;1843.20;;;;;;4916304;29;19998;-78
2024/02/27 12:01:15;;;;;;;;;;;486.40;1843.20;;;;;;4913120;29;20286;-78
2024/02/27 12:03:44;;;;;;;;;;;486.80;1843.20;;;;;;4907081;29;20002;-79
2024/02/27 12:06:11;;;;;;;;;;;486.80;1792.00;;;;;;4909436;29;19921;-78
2024/02/27 12:08:50;;;;;;;;;;;486.70;1817.60;;;;;;4910595;29;19975;-78
2024/02/27 12:11:17;;;;;;;;;;;486.70;1868.80;;;;;;4931462;29;20364;-77
2024/02/27 12:13:49;;;;;;;;;;;486.80;1843.20;;;;;;4935420;29;19986;-80
2024/02/27 12:16:24;;;;;;;;;;;487.00;1792.00;;;;;;4925678;29;19919;-80
2024/02/27 12:18:50;;;;;;;;;;;487.30;1792.00;;;;;;4909117;29;19912;-80
2024/02/27 12:21:28;;;;;;;;;;;512.00;1740.80;;;;;;4909488;29;19929;-75
2024/02/27 12:24:09;;;;;;;;;;;487.30;1766.40;;;;;;4913634;29;19974;-78
2024/02/27 12:26:35;;;;;;;;;;;487.30;1740.80;;;;;;4928694;29;20017;-78
2024/02/27 12:29:01;;;;;;;;;;;487.30;1740.80;;;;;;4915538;29;20382;-76
2024/02/27 12:31:31;;;;;;;;;;;487.30;1766.40;;;;;;4929671;29;20371;-76
2024/02/27 12:34:00;;;;;;;;;;;487.30;1766.40;;;;;;4929796;29;19934;-76
2024/02/27 12:36:26;;;;;;;;;;;512.00;1740.80;;;;;;4922601;29;19911;-76
2024/02/27 12:38:52;;;;;;;;;;;512.20;1740.80;;;;;;4930917;29;19918;-76
2024/02/27 12:41:18;;;;;;;;;;;512.20;1715.20;;;;;;4928992;29;19918;-79
2024/02/27 12:43:44;;;;;;;;;;;512.00;1715.20;;;;;;4937772;29;20002;-76
2024/02/27 12:46:10;;;;;;;;;;;512.00;1715.20;;;;;;4938172;29;20346;-75
2024/02/27 12:48:35;;;;;;;;;;;487.30;1715.20;;;;;;4927777;29;19918;-82
2024/02/27 12:51:03;;;;;;;;;;;512.00;1715.20;;;;;;4911293;29;20002;-78
2024/02/27 12:53:29;;;;;;;;;;;512.10;1715.20;;;;;;4917253;29;19919;-77
2024/02/27 12:55:55;;;;;;;;;;;512.00;1740.80;;;;;;4913195;29;19915;-81
2024/02/27 12:58:24;;;;;;;;;;;487.30;1715.20;;;;;;4915468;29;20274;-81
2024/02/27 13:00:50;;;;;;;;;;;512.00;1715.20;;;;;;4916639;29;20363;-78
2024/02/27 13:03:18;;;;;;;;;;;512.20;1715.20;;;;;;4912025;29;19911;-79
2024/02/27 13:05:44;;;;;;;;;;;512.60;1740.80;;;;;;4907661;29;20268;-79
2024/02/27 13:08:10;;;;;;;;;;;512.80;1689.60;;;;;;4915271;29;19918;-78
2024/02/27 13:10:36;;;;;;;;;;;512.80;1664.00;;;;;;4931907;29;19918;-79
2024/02/27 13:13:18;;;;;;;;;;;537.60;1715.20;;;;;;4927426;29;20419;-79
2024/02/27 13:15:48;;;;;;;;;;;512.80;1664.00;;;;;;4935028;29;20375;-79
2024/02/27 13:18:17;;;;;;;;;;;512.90;1689.60;;;;;;4906485;29;19915;-80
2024/02/27 13:20:45;;;;;;;;;;;512.70;1664.00;;;;;;4930257;29;20434;-80
2024/02/27 13:23:11;;;;;;;;;;;512.70;1664.00;;;;;;4916155;29;19915;-81
2024/02/27 13:25:36;;;;;;;;;;;512.50;1638.40;;;;;;4917378;29;19911;-79
2024/02/27 13:28:02;;;;;;;;;;;512.40;1638.40;;;;;;4926772;29;19911;-79
2024/02/27 13:30:28;;;;;;;;;;;512.30;1689.60;;;;;;4926845;29;20016;-79
2024/02/27 13:32:53;;;;;;;;;;;512.20;1664.00;;;;;;4926777;29;20356;-78
2024/02/27 13:35:19;;;;;;;;;;;512.20;1689.60;;;;;;4914596;29;19939;-78
2024/02/27 13:37:50;;;;;;;;;;;512.30;1689.60;;;;;;4910159;29;19911;-79
2024/02/27 13:40:15;;;;;;;;;;;512.20;1689.60;;;;;;4917038;29;20426;-79